sensor_id;sensor_type;location;lat;lon;timestamp;pressure;altitude;pressure_sealevel;temperature;humidity
69780;BME280;57052;55.602;38.096;2023-07-30T00:02:17;99318.75;;;16.22;75.51
69780;BME280;57052;55.602;38.096;2023-07-30T00:04:44;99305.09;;;16.22;75.16
69780;BME280;57052;55.602;38.096;2023-07-30T00:07:10;99317.13;;;16.21;75.11
69780;BME280;57052;55.602;38.096;2023-07-30T00:09:37;99321.47;;;16.22;74.96
69780;BME280;57052;55.602;38.096;2023-07-30T00:12:04;99309.75;;;16.22;74.99
69780;BME280;57052;55.602;38.096;2023-07-30T00:14:30;99307.00;;;16.22;74.96
69780;BME280;57052;55.602;38.096;2023-07-30T00:16:55;99308.63;;;16.23;75.14
69780;BME280;57052;55.602;38.096;2023-07-30T00:19:21;99316.00;;;16.22;75.23
69780;BME280;57052;55.602;38.096;2023-07-30T00:21:47;99315.22;;;16.22;75.34
69780;BME280;57052;55.602;38.096;2023-07-30T00:24:13;99323.41;;;16.22;75.26
69780;BME280;57052;55.602;38.096;2023-07-30T00:26:39;99310.38;;;16.19;75.38
69780;BME280;57052;55.602;38.096;2023-07-30T00:29:04;99310.56;;;16.22;75.57
69780;BME280;57052;55.602;38.096;2023-07-30T00:31:30;99312.00;;;16.20;75.46
69780;BME280;57052;55.602;38.096;2023-07-30T00:33:55;99310.09;;;16.20;75.57
69780;BME280;57052;55.602;38.096;2023-07-30T00:36:21;99316.66;;;16.19;75.61
69780;BME280;57052;55.602;38.096;2023-07-30T00:38:47;99311.19;;;16.19;75.54
69780;BME280;57052;55.602;38.096;2023-07-30T00:41:13;99312.81;;;16.20;75.84
69780;BME280;57052;55.602;38.096;2023-07-30T00:43:38;99299.19;;;16.12;75.64
69780;BME280;57052;55.602;38.096;2023-07-30T00:46:04;99312.81;;;16.20;75.81
69780;BME280;57052;55.602;38.096;2023-07-30T00:48:30;99289.88;;;16.13;75.68
69780;BME280;57052;55.602;38.096;2023-07-30T00:50:56;99308.81;;;16.18;76.04
69780;BME280;57052;55.602;38.096;2023-07-30T00:53:23;99310.72;;;16.17;76.08
69780;BME280;57052;55.602;38.096;2023-07-30T00:55:51;99304.81;;;16.15;76.01
69780;BME280;57052;55.602;38.096;2023-07-30T00:58:18;99297.09;;;16.17;76.13
69780;BME280;57052;55.602;38.096;2023-07-30T01:00:44;99301.75;;;16.17;76.43
69780;BME280;57052;55.602;38.096;2023-07-30T01:03:10;99280.13;;;16.03;76.22
69780;BME280;57052;55.602;38.096;2023-07-30T01:05:36;99285.72;;;16.07;76.34
69780;BME280;57052;55.602;38.096;2023-07-30T01:08:02;99296.16;;;16.13;76.27
69780;BME280;57052;55.602;38.096;2023-07-30T01:10:30;99287.47;;;16.11;76.57
69780;BME280;57052;55.602;38.096;2023-07-30T01:13:01;99292.16;;;16.11;76.46
69780;BME280;57052;55.602;38.096;2023-07-30T01:15:29;99294.06;;;16.10;76.62
69780;BME280;57052;55.602;38.096;2023-07-30T01:17:55;99289.59;;;16.06;76.89
69780;BME280;57052;55.602;38.096;2023-07-30T01:20:21;99285.09;;;16.01;76.67
69780;BME280;57052;55.602;38.096;2023-07-30T01:22:47;99292.63;;;16.04;76.61
69780;BME280;57052;55.602;38.096;2023-07-30T01:25:14;99299.25;;;16.03;76.61
69780;BME280;57052;55.602;38.096;2023-07-30T01:27:44;99289.44;;;16.02;76.74
69780;BME280;57052;55.602;38.096;2023-07-30T01:30:15;99284.88;;;15.85;77.56
69780;BME280;57052;55.602;38.096;2023-07-30T01:32:42;99293.97;;;15.98;77.07
69780;BME280;57052;55.602;38.096;2023-07-30T01:35:08;99293.28;;;16.01;77.17
69780;BME280;57052;55.602;38.096;2023-07-30T01:37:35;99285.16;;;15.92;77.05
69780;BME280;57052;55.602;38.096;2023-07-30T01:40:03;99291.72;;;16.00;76.94
69780;BME280;57052;55.602;38.096;2023-07-30T01:42:31;99290.91;;;15.99;76.93
69780;BME280;57052;55.602;38.096;2023-07-30T01:44:57;99289.44;;;16.02;77.19
69780;BME280;57052;55.602;38.096;2023-07-30T01:47:22;99290.56;;;16.01;77.18
69780;BME280;57052;55.602;38.096;2023-07-30T01:49:48;99284.16;;;15.97;77.13
69780;BME280;57052;55.602;38.096;2023-07-30T01:52:15;99291.06;;;16.03;76.94
69780;BME280;57052;55.602;38.096;2023-07-30T01:54:40;99296.50;;;16.03;76.79
69780;BME280;57052;55.602;38.096;2023-07-30T01:57:07;99298.91;;;16.04;77.07
69780;BME280;57052;55.602;38.096;2023-07-30T01:59:33;99295.38;;;16.04;77.13
69780;BME280;57052;55.602;38.096;2023-07-30T02:01:59;99299.38;;;16.07;77.46
69780;BME280;57052;55.602;38.096;2023-07-30T02:04:24;99295.84;;;16.06;77.46
69780;BME280;57052;55.602;38.096;2023-07-30T02:06:50;99289.25;;;16.07;77.71
69780;BME280;57052;55.602;38.096;2023-07-30T02:09:16;99293.91;;;16.07;77.84
69780;BME280;57052;55.602;38.096;2023-07-30T02:11:41;99292.47;;;16.09;77.70
69780;BME280;57052;55.602;38.096;2023-07-30T02:14:09;99296.00;;;16.10;77.43
69780;BME280;57052;55.602;38.096;2023-07-30T02:16:35;99302.25;;;16.10;77.67
69780;BME280;57052;55.602;38.096;2023-07-30T02:19:01;99300.81;;;16.13;77.55
69780;BME280;57052;55.602;38.096;2023-07-30T02:21:26;99302.72;;;16.12;77.47
69780;BME280;57052;55.602;38.096;2023-07-30T02:23:52;99300.81;;;16.13;77.48
69780;BME280;57052;55.602;38.096;2023-07-30T02:26:18;99311.72;;;16.13;77.67
69780;BME280;57052;55.602;38.096;2023-07-30T02:28:43;99308.38;;;16.07;77.65
69780;BME280;57052;55.602;38.096;2023-07-30T02:31:09;99305.00;;;16.10;77.90
69780;BME280;57052;55.602;38.096;2023-07-30T02:33:35;99309.66;;;16.10;77.68
69780;BME280;57052;55.602;38.096;2023-07-30T02:36:00;99303.06;;;16.11;77.89
69780;BME280;57052;55.602;38.096;2023-07-30T02:38:26;99301.97;;;16.03;77.78
69780;BME280;57052;55.602;38.096;2023-07-30T02:40:52;99309.97;;;16.08;78.06
69780;BME280;57052;55.602;38.096;2023-07-30T02:43:17;99308.38;;;16.07;77.66
69780;BME280;57052;55.602;38.096;2023-07-30T02:45:47;99294.47;;;15.91;77.64
69780;BME280;57052;55.602;38.096;2023-07-30T02:48:12;99316.91;;;16.06;77.73
69780;BME280;57052;55.602;38.096;2023-07-30T02:50:38;99300.25;;;15.90;77.56
69780;BME280;57052;55.602;38.096;2023-07-30T02:53:04;99318.34;;;16.03;77.38
69780;BME280;57052;55.602;38.096;2023-07-30T02:55:29;99325.28;;;16.00;77.40
69780;BME280;57052;55.602;38.096;2023-07-30T02:57:55;99314.84;;;15.94;77.55
69780;BME280;57052;55.602;38.096;2023-07-30T03:00:21;99326.84;;;16.01;77.30
69780;BME280;57052;55.602;38.096;2023-07-30T03:02:46;99323.00;;;16.02;77.48
69780;BME280;57052;55.602;38.096;2023-07-30T03:05:12;99322.66;;;16.04;77.57
69780;BME280;57052;55.602;38.096;2023-07-30T03:07:38;99321.25;;;15.98;77.50
69780;BME280;57052;55.602;38.096;2023-07-30T03:10:03;99310.66;;;15.96;77.68
69780;BME280;57052;55.602;38.096;2023-07-30T03:12:30;99333.41;;;16.09;77.75
69780;BME280;57052;55.602;38.096;2023-07-30T03:14:56;99325.69;;;16.11;77.90
69780;BME280;57052;55.602;38.096;2023-07-30T03:17:21;99327.31;;;16.12;77.76
69780;BME280;57052;55.602;38.096;2023-07-30T03:19:47;99329.38;;;16.15;77.90
69780;BME280;57052;55.602;38.096;2023-07-30T03:22:13;99334.50;;;16.17;77.98
69780;BME280;57052;55.602;38.096;2023-07-30T03:24:39;99330.78;;;16.21;78.04
69780;BME280;57052;55.602;38.096;2023-07-30T03:27:05;99341.06;;;16.24;78.00
69780;BME280;57052;55.602;38.096;2023-07-30T03:29:31;99338.78;;;16.26;77.83
69780;BME280;57052;55.602;38.096;2023-07-30T03:31:56;99342.16;;;16.32;77.88
69780;BME280;57052;55.602;38.096;2023-07-30T03:34:22;99342.31;;;16.35;77.65
69780;BME280;57052;55.602;38.096;2023-07-30T03:36:47;99337.31;;;16.37;77.62
69780;BME280;57052;55.602;38.096;2023-07-30T03:39:13;99348.34;;;16.41;77.82
69780;BME280;57052;55.602;38.096;2023-07-30T03:41:39;99346.13;;;16.43;77.37
69780;BME280;57052;55.602;38.096;2023-07-30T03:44:04;99342.59;;;16.42;77.26
69780;BME280;57052;55.602;38.096;2023-07-30T03:46:30;99348.66;;;16.48;77.39
69780;BME280;57052;55.602;38.096;2023-07-30T03:48:56;99358.91;;;16.51;77.15
69780;BME280;57052;55.602;38.096;2023-07-30T03:51:21;99355.91;;;16.52;77.13
69780;BME280;57052;55.602;38.096;2023-07-30T03:53:47;99354.09;;;16.56;77.17
69780;BME280;57052;55.602;38.096;2023-07-30T03:56:13;99361.63;;;16.59;77.33
69780;BME280;57052;55.602;38.096;2023-07-30T03:58:38;99360.97;;;16.62;77.37
69780;BME280;57052;55.602;38.096;2023-07-30T04:01:04;99345.44;;;16.54;77.37
69780;BME280;57052;55.602;38.096;2023-07-30T04:03:29;99345.25;;;16.59;77.25
69780;BME280;57052;55.602;38.096;2023-07-30T04:05:55;99363.66;;;16.71;76.88
69780;BME280;57052;55.602;38.096;2023-07-30T04:08:21;99369.72;;;16.77;77.01
69780;BME280;57052;55.602;38.096;2023-07-30T04:10:46;99376.94;;;16.81;77.08
69780;BME280;57052;55.602;38.096;2023-07-30T04:13:13;99370.50;;;16.86;76.99
69780;BME280;57052;55.602;38.096;2023-07-30T04:15:38;99365.94;;;16.90;77.34
69780;BME280;57052;55.602;38.096;2023-07-30T04:18:04;99372.69;;;16.92;77.19
69780;BME280;57052;55.602;38.096;2023-07-30T04:20:29;99378.31;;;16.96;76.96
69780;BME280;57052;55.602;38.096;2023-07-30T04:22:55;99377.97;;;16.97;77.16
69780;BME280;57052;55.602;38.096;2023-07-30T04:25:21;99336.13;;;16.76;76.77
69780;BME280;57052;55.602;38.096;2023-07-30T04:27:46;99385.63;;;17.04;77.11
69780;BME280;57052;55.602;38.096;2023-07-30T04:30:12;99386.22;;;17.09;76.96
69780;BME280;57052;55.602;38.096;2023-07-30T04:32:38;99392.31;;;17.15;76.93
69780;BME280;57052;55.602;38.096;2023-07-30T04:35:04;99376.44;;;17.08;76.66
69780;BME280;57052;55.602;38.096;2023-07-30T04:37:30;99387.44;;;17.20;76.92
69780;BME280;57052;55.602;38.096;2023-07-30T04:39:56;99396.72;;;17.28;76.94
69780;BME280;57052;55.602;38.096;2023-07-30T04:42:22;99402.00;;;17.33;76.64
69780;BME280;57052;55.602;38.096;2023-07-30T04:44:48;99394.56;;;17.33;76.90
69780;BME280;57052;55.602;38.096;2023-07-30T04:47:13;99392.97;;;17.33;76.73
69780;BME280;57052;55.602;38.096;2023-07-30T04:49:39;99394.16;;;17.44;76.78
69780;BME280;57052;55.602;38.096;2023-07-30T04:52:07;99401.38;;;17.48;76.66
69780;BME280;57052;55.602;38.096;2023-07-30T04:54:33;99383.22;;;17.44;76.24
69780;BME280;57052;55.602;38.096;2023-07-30T04:57:02;99406.94;;;17.60;76.03
69780;BME280;57052;55.602;38.096;2023-07-30T04:59:28;99400.91;;;17.67;76.23
69780;BME280;57052;55.602;38.096;2023-07-30T05:01:53;99395.56;;;17.70;76.09
69780;BME280;57052;55.602;38.096;2023-07-30T05:04:19;99407.13;;;17.76;75.86
69780;BME280;57052;55.602;38.096;2023-07-30T05:06:45;99411.69;;;17.84;75.64
69780;BME280;57052;55.602;38.096;2023-07-30T05:09:11;99411.28;;;17.94;75.66
69780;BME280;57052;55.602;38.096;2023-07-30T05:11:39;99418.28;;;18.04;75.66
69780;BME280;57052;55.602;38.096;2023-07-30T05:14:04;99405.16;;;18.09;75.50
69780;BME280;57052;55.602;38.096;2023-07-30T05:16:30;99400.47;;;18.10;74.86
69780;BME280;57052;55.602;38.096;2023-07-30T05:18:56;99411.91;;;18.24;74.95
69780;BME280;57052;55.602;38.096;2023-07-30T05:21:21;99405.09;;;18.30;74.86
69780;BME280;57052;55.602;38.096;2023-07-30T05:23:47;99393.31;;;18.29;74.49
69780;BME280;57052;55.602;38.096;2023-07-30T05:26:13;99398.47;;;18.43;74.31
69780;BME280;57052;55.602;38.096;2023-07-30T05:28:38;99390.06;;;18.48;73.94
69780;BME280;57052;55.602;38.096;2023-07-30T05:31:04;99398.28;;;18.48;73.43
69780;BME280;57052;55.602;38.096;2023-07-30T05:33:30;99340.00;;;18.27;73.45
69780;BME280;57052;55.602;38.096;2023-07-30T05:35:56;99407.31;;;18.73;73.52
69780;BME280;57052;55.602;38.096;2023-07-30T05:38:21;99396.47;;;18.76;73.11
69780;BME280;57052;55.602;38.096;2023-07-30T05:40:47;99390.41;;;18.83;73.05
69780;BME280;57052;55.602;38.096;2023-07-30T05:43:13;99397.72;;;18.91;72.80
69780;BME280;57052;55.602;38.096;2023-07-30T05:45:39;99388.88;;;18.97;72.68
69780;BME280;57052;55.602;38.096;2023-07-30T05:48:04;99387.03;;;19.01;72.36
69780;BME280;57052;55.602;38.096;2023-07-30T05:50:30;99389.53;;;19.06;72.14
69780;BME280;57052;55.602;38.096;2023-07-30T05:52:55;99384.31;;;19.13;72.03
69780;BME280;57052;55.602;38.096;2023-07-30T05:55:21;99380.84;;;19.16;71.81
69780;BME280;57052;55.602;38.096;2023-07-30T05:57:47;99383.34;;;19.21;71.52
69780;BME280;57052;55.602;38.096;2023-07-30T06:00:12;99386.66;;;19.27;71.19
69780;BME280;57052;55.602;38.096;2023-07-30T06:02:38;99384.47;;;19.33;71.06
69780;BME280;57052;55.602;38.096;2023-07-30T06:05:04;99378.28;;;19.36;70.92
69780;BME280;57052;55.602;38.096;2023-07-30T06:07:30;99376.91;;;19.42;70.90
69780;BME280;57052;55.602;38.096;2023-07-30T06:09:56;99376.66;;;19.47;70.66
69780;BME280;57052;55.602;38.096;2023-07-30T06:12:21;99369.34;;;19.51;70.39
69780;BME280;57052;55.602;38.096;2023-07-30T06:14:47;99364.28;;;19.53;70.07
69780;BME280;57052;55.602;38.096;2023-07-30T06:17:13;99371.59;;;19.61;70.03
69780;BME280;57052;55.602;38.096;2023-07-30T06:19:38;99373.03;;;19.70;70.28
69780;BME280;57052;55.602;38.096;2023-07-30T06:22:04;99367.28;;;19.75;69.92
69780;BME280;57052;55.602;38.096;2023-07-30T06:24:30;99363.41;;;19.76;69.64
69780;BME280;57052;55.602;38.096;2023-07-30T06:26:55;99366.41;;;19.87;69.71
69780;BME280;57052;55.602;38.096;2023-07-30T06:29:21;99353.13;;;19.89;69.71
69780;BME280;57052;55.602;38.096;2023-07-30T06:31:47;99373.81;;;19.99;69.67
69780;BME280;57052;55.602;38.096;2023-07-30T06:34:12;99346.91;;;19.92;69.12
69780;BME280;57052;55.602;38.096;2023-07-30T06:36:38;99361.06;;;20.06;68.96
69780;BME280;57052;55.602;38.096;2023-07-30T06:39:04;99366.28;;;20.11;69.04
69780;BME280;57052;55.602;38.096;2023-07-30T06:41:29;99345.81;;;20.09;68.92
69780;BME280;57052;55.602;38.096;2023-07-30T06:43:55;99355.91;;;20.20;68.85
69780;BME280;57052;55.602;38.096;2023-07-30T06:46:20;99335.25;;;20.11;68.46
69780;BME280;57052;55.602;38.096;2023-07-30T06:48:46;99353.97;;;20.21;68.08
69780;BME280;57052;55.602;38.096;2023-07-30T06:51:12;99324.34;;;19.99;67.67
69780;BME280;57052;55.602;38.096;2023-07-30T06:53:39;99356.81;;;20.24;67.27
69780;BME280;57052;55.602;38.096;2023-07-30T06:56:05;99365.53;;;20.26;67.34
69780;BME280;57052;55.602;38.096;2023-07-30T06:58:30;99357.63;;;20.25;66.95
69780;BME280;57052;55.602;38.096;2023-07-30T07:00:56;99341.72;;;20.18;66.67
69780;BME280;57052;55.602;38.096;2023-07-30T07:03:22;99353.47;;;20.31;66.71
69780;BME280;57052;55.602;38.096;2023-07-30T07:05:54;99360.19;;;20.33;66.53
69780;BME280;57052;55.602;38.096;2023-07-30T07:08:20;99359.41;;;20.33;66.75
69780;BME280;57052;55.602;38.096;2023-07-30T07:10:46;99351.69;;;20.38;66.76
69780;BME280;57052;55.602;38.096;2023-07-30T07:13:12;99355.75;;;20.44;67.19
69780;BME280;57052;55.602;38.096;2023-07-30T07:15:44;99347.44;;;20.41;65.92
69780;BME280;57052;55.602;38.096;2023-07-30T07:18:10;99345.28;;;20.50;66.62
69780;BME280;57052;55.602;38.096;2023-07-30T07:20:37;99354.59;;;20.61;65.83
69780;BME280;57052;55.602;38.096;2023-07-30T07:23:03;99353.16;;;20.67;65.95
69780;BME280;57052;55.602;38.096;2023-07-30T07:25:29;99345.97;;;20.63;65.93
69780;BME280;57052;55.602;38.096;2023-07-30T07:27:54;99347.03;;;20.74;65.85
69780;BME280;57052;55.602;38.096;2023-07-30T07:30:20;99353.78;;;20.76;65.47
69780;BME280;57052;55.602;38.096;2023-07-30T07:32:46;99355.44;;;20.81;65.52
69780;BME280;57052;55.602;38.096;2023-07-30T07:35:18;99346.47;;;20.84;65.54
69780;BME280;57052;55.602;38.096;2023-07-30T07:37:44;99352.41;;;20.86;65.05
69780;BME280;57052;55.602;38.096;2023-07-30T07:40:10;99351.22;;;20.87;64.80
69780;BME280;57052;55.602;38.096;2023-07-30T07:42:38;99353.28;;;20.90;64.13
69780;BME280;57052;55.602;38.096;2023-07-30T07:45:05;99351.75;;;20.92;64.25
69780;BME280;57052;55.602;38.096;2023-07-30T07:47:31;99343.88;;;20.91;63.95
69780;BME280;57052;55.602;38.096;2023-07-30T07:49:57;99355.31;;;20.93;63.46
69780;BME280;57052;55.602;38.096;2023-07-30T07:52:22;99348.44;;;21.02;63.47
69780;BME280;57052;55.602;38.096;2023-07-30T07:54:48;99351.47;;;21.13;63.35
69780;BME280;57052;55.602;38.096;2023-07-30T07:57:13;99353.22;;;21.21;63.55
69780;BME280;57052;55.602;38.096;2023-07-30T07:59:39;99356.91;;;21.29;63.27
69780;BME280;57052;55.602;38.096;2023-07-30T08:02:07;99365.19;;;21.29;62.51
69780;BME280;57052;55.602;38.096;2023-07-30T08:04:32;99358.44;;;21.26;62.83
69780;BME280;57052;55.602;38.096;2023-07-30T08:06:58;99361.19;;;21.26;62.71
69780;BME280;57052;55.602;38.096;2023-07-30T08:09:29;99367.03;;;21.25;62.84
69780;BME280;57052;55.602;38.096;2023-07-30T08:11:54;99363.13;;;21.26;62.60
69780;BME280;57052;55.602;38.096;2023-07-30T08:14:20;99370.25;;;21.27;62.44
69780;BME280;57052;55.602;38.096;2023-07-30T08:16:46;99375.00;;;21.30;62.58
69780;BME280;57052;55.602;38.096;2023-07-30T08:19:11;99367.50;;;21.27;62.27
69780;BME280;57052;55.602;38.096;2023-07-30T08:21:37;99368.66;;;21.26;61.92
69780;BME280;57052;55.602;38.096;2023-07-30T08:24:03;99371.47;;;21.29;61.91
69780;BME280;57052;55.602;38.096;2023-07-30T08:26:30;99379.47;;;21.34;62.35
69780;BME280;57052;55.602;38.096;2023-07-30T08:28:55;99385.09;;;21.41;62.31
69780;BME280;57052;55.602;38.096;2023-07-30T08:31:21;99369.72;;;21.40;61.63
69780;BME280;57052;55.602;38.096;2023-07-30T08:33:46;99379.44;;;21.53;60.89
69780;BME280;57052;55.602;38.096;2023-07-30T08:36:12;99372.41;;;21.56;61.39
69780;BME280;57052;55.602;38.096;2023-07-30T08:38:38;99378.91;;;21.67;61.37
69780;BME280;57052;55.602;38.096;2023-07-30T08:41:04;99372.69;;;21.70;61.39
69780;BME280;57052;55.602;38.096;2023-07-30T08:43:29;99378.28;;;21.73;61.30
69780;BME280;57052;55.602;38.096;2023-07-30T08:45:55;99366.03;;;21.71;61.00
69780;BME280;57052;55.602;38.096;2023-07-30T08:48:21;99375.94;;;21.76;61.09
69780;BME280;57052;55.602;38.096;2023-07-30T08:50:48;99380.38;;;21.80;61.00
69780;BME280;57052;55.602;38.096;2023-07-30T08:53:15;99382.31;;;21.80;60.32
69780;BME280;57052;55.602;38.096;2023-07-30T08:55:41;99376.47;;;21.81;60.05
69780;BME280;57052;55.602;38.096;2023-07-30T08:58:07;99379.25;;;21.85;60.21
69780;BME280;57052;55.602;38.096;2023-07-30T09:00:37;99367.97;;;21.90;59.93
69780;BME280;57052;55.602;38.096;2023-07-30T09:03:04;99375.22;;;21.98;59.39
69780;BME280;57052;55.602;38.096;2023-07-30T09:05:30;99364.69;;;22.03;59.49
69780;BME280;57052;55.602;38.096;2023-07-30T09:07:57;99376.22;;;22.09;58.53
69780;BME280;57052;55.602;38.096;2023-07-30T09:10:23;99377.03;;;22.09;58.31
69780;BME280;57052;55.602;38.096;2023-07-30T09:12:55;99370.44;;;22.17;58.05
69780;BME280;57052;55.602;38.096;2023-07-30T09:15:41;99372.56;;;22.24;56.29
69780;BME280;57052;55.602;38.096;2023-07-30T09:18:07;99371.94;;;22.34;57.64
69780;BME280;57052;55.602;38.096;2023-07-30T09:20:41;99361.22;;;22.29;55.77
69780;BME280;57052;55.602;38.096;2023-07-30T09:23:08;99368.41;;;22.37;57.22
69780;BME280;57052;55.602;38.096;2023-07-30T09:25:34;99370.44;;;22.40;56.77
69780;BME280;57052;55.602;38.096;2023-07-30T09:28:01;99372.47;;;22.43;57.21
69780;BME280;57052;55.602;38.096;2023-07-30T09:30:27;99375.31;;;22.47;56.79
69780;BME280;57052;55.602;38.096;2023-07-30T09:32:56;99375.75;;;22.52;56.09
69780;BME280;57052;55.602;38.096;2023-07-30T09:35:22;99373.16;;;22.59;56.64
69780;BME280;57052;55.602;38.096;2023-07-30T09:37:57;99362.47;;;22.58;55.72
69780;BME280;57052;55.602;38.096;2023-07-30T09:40:31;99383.31;;;22.78;54.90
69780;BME280;57052;55.602;38.096;2023-07-30T09:42:57;99390.59;;;22.89;55.80
69780;BME280;57052;55.602;38.096;2023-07-30T09:45:25;99380.88;;;22.99;55.34
69780;BME280;57052;55.602;38.096;2023-07-30T09:47:52;99377.81;;;23.08;54.76
69780;BME280;57052;55.602;38.096;2023-07-30T09:50:19;99378.38;;;23.17;54.02
69780;BME280;57052;55.602;38.096;2023-07-30T09:52:45;99380.81;;;23.22;53.99
69780;BME280;57052;55.602;38.096;2023-07-30T09:55:11;99383.25;;;23.30;53.64
69780;BME280;57052;55.602;38.096;2023-07-30T09:57:38;99378.59;;;23.34;53.40
69780;BME280;57052;55.602;38.096;2023-07-30T10:00:05;99377.50;;;23.39;53.09
69780;BME280;57052;55.602;38.096;2023-07-30T10:02:37;99382.72;;;23.47;52.93
69780;BME280;57052;55.602;38.096;2023-07-30T10:05:16;99374.97;;;23.60;53.09
69780;BME280;57052;55.602;38.096;2023-07-30T10:07:49;99387.03;;;23.78;52.74
69780;BME280;57052;55.602;38.096;2023-07-30T10:10:18;99386.06;;;23.97;53.15
69780;BME280;57052;55.602;38.096;2023-07-30T10:12:46;99383.47;;;24.07;53.06
69780;BME280;57052;55.602;38.096;2023-07-30T10:15:13;99378.06;;;24.21;52.88
69780;BME280;57052;55.602;38.096;2023-07-30T10:17:39;99383.34;;;24.41;52.88
69780;BME280;57052;55.602;38.096;2023-07-30T10:20:21;99374.41;;;24.58;50.94
69780;BME280;57052;55.602;38.096;2023-07-30T10:22:54;99369.47;;;24.81;51.37
69780;BME280;57052;55.602;38.096;2023-07-30T10:25:47;99375.53;;;25.01;50.52
69780;BME280;57052;55.602;38.096;2023-07-30T10:31:03;99371.06;;;25.47;51.28
69780;BME280;57052;55.602;38.096;2023-07-30T10:33:50;99373.09;;;25.57;48.73
69780;BME280;57052;55.602;38.096;2023-07-30T10:36:34;99364.00;;;25.64;48.71
69780;BME280;57052;55.602;38.096;2023-07-30T10:41:40;99375.53;;;25.83;49.59
69780;BME280;57052;55.602;38.096;2023-07-30T10:44:05;99366.47;;;25.97;49.55
69780;BME280;57052;55.602;38.096;2023-07-30T10:46:31;99332.78;;;25.98;49.83
69780;BME280;57052;55.602;38.096;2023-07-30T10:48:57;99370.91;;;26.47;49.13
69780;BME280;57052;55.602;38.096;2023-07-30T10:51:23;99375.25;;;26.66;48.36
69780;BME280;57052;55.602;38.096;2023-07-30T10:53:50;99365.34;;;26.90;47.61
69780;BME280;57052;55.602;38.096;2023-07-30T10:56:17;99371.25;;;27.20;47.01
69780;BME280;57052;55.602;38.096;2023-07-30T10:58:49;99369.63;;;27.29;45.51
69780;BME280;57052;55.602;38.096;2023-07-30T11:01:16;99372.78;;;27.42;46.42
69780;BME280;57052;55.602;38.096;2023-07-30T11:03:42;99365.25;;;27.39;45.21
69780;BME280;57052;55.602;38.096;2023-07-30T11:06:07;99378.72;;;27.33;44.91
69780;BME280;57052;55.602;38.096;2023-07-30T11:08:42;99374.00;;;27.23;45.38
69780;BME280;57052;55.602;38.096;2023-07-30T11:11:08;99366.88;;;27.12;43.78
69780;BME280;57052;55.602;38.096;2023-07-30T11:13:36;99365.28;;;27.21;45.24
69780;BME280;57052;55.602;38.096;2023-07-30T11:16:02;99371.19;;;27.38;44.81
69780;BME280;57052;55.602;38.096;2023-07-30T11:18:31;99363.94;;;27.61;43.57
69780;BME280;57052;55.602;38.096;2023-07-30T11:21:10;99359.91;;;27.76;41.26
69780;BME280;57052;55.602;38.096;2023-07-30T11:23:37;99368.97;;;27.91;43.62
69780;BME280;57052;55.602;38.096;2023-07-30T11:26:05;99364.53;;;28.08;42.01
69780;BME280;57052;55.602;38.096;2023-07-30T11:28:31;99353.63;;;28.31;42.71
69780;BME280;57052;55.602;38.096;2023-07-30T11:30:59;99374.53;;;28.53;41.56
69780;BME280;57052;55.602;38.096;2023-07-30T11:33:27;99371.00;;;28.45;41.03
69780;BME280;57052;55.602;38.096;2023-07-30T11:35:54;99367.94;;;28.29;40.72
69780;BME280;57052;55.602;38.096;2023-07-30T11:38:22;99371.59;;;28.23;41.59
69780;BME280;57052;55.602;38.096;2023-07-30T11:40:48;99374.75;;;28.21;41.17
69780;BME280;57052;55.602;38.096;2023-07-30T11:43:14;99367.59;;;28.24;41.88
69780;BME280;57052;55.602;38.096;2023-07-30T11:45:40;99366.00;;;28.23;41.37
69780;BME280;57052;55.602;38.096;2023-07-30T11:48:07;99370.03;;;28.18;40.53
69780;BME280;57052;55.602;38.096;2023-07-30T11:51:02;99369.72;;;28.02;36.93
69780;BME280;57052;55.602;38.096;2023-07-30T11:53:51;99368.50;;;28.07;37.87
69780;BME280;57052;55.602;38.096;2023-07-30T11:56:25;99372.78;;;28.22;38.97
69780;BME280;57052;55.602;38.096;2023-07-30T11:58:57;99366.69;;;28.37;38.16
69780;BME280;57052;55.602;38.096;2023-07-30T12:01:25;99365.25;;;28.70;38.90
69780;BME280;57052;55.602;38.096;2023-07-30T12:03:54;99357.03;;;28.97;37.76
69780;BME280;57052;55.602;38.096;2023-07-30T12:06:20;99356.78;;;29.21;38.49
69780;BME280;57052;55.602;38.096;2023-07-30T12:08:48;99347.25;;;29.53;37.24
69780;BME280;57052;55.602;38.096;2023-07-30T12:11:17;99361.38;;;29.69;36.00
69780;BME280;57052;55.602;38.096;2023-07-30T12:13:44;99352.06;;;29.82;34.72
69780;BME280;57052;55.602;38.096;2023-07-30T12:16:13;99348.78;;;29.88;35.93
69780;BME280;57052;55.602;38.096;2023-07-30T12:18:40;99355.97;;;30.15;35.45
69780;BME280;57052;55.602;38.096;2023-07-30T12:21:06;99358.06;;;30.34;35.76
69780;BME280;57052;55.602;38.096;2023-07-30T12:23:37;99359.25;;;30.60;34.55
69780;BME280;57052;55.602;38.096;2023-07-30T12:26:03;99357.53;;;30.89;34.71
69780;BME280;57052;55.602;38.096;2023-07-30T12:28:35;99359.88;;;31.14;33.29
69780;BME280;57052;55.602;38.096;2023-07-30T12:31:01;99360.41;;;31.29;33.28
69780;BME280;57052;55.602;38.096;2023-07-30T12:33:26;99354.06;;;31.05;33.50
69780;BME280;57052;55.602;38.096;2023-07-30T12:35:52;99357.59;;;30.86;32.88
69780;BME280;57052;55.602;38.096;2023-07-30T12:38:18;99363.56;;;30.65;33.20
69780;BME280;57052;55.602;38.096;2023-07-30T12:40:44;99362.03;;;30.37;33.63
69780;BME280;57052;55.602;38.096;2023-07-30T12:43:10;99353.09;;;30.19;34.09
69780;BME280;57052;55.602;38.096;2023-07-30T12:45:36;99356.94;;;30.02;33.52
69780;BME280;57052;55.602;38.096;2023-07-30T12:48:01;99346.94;;;29.74;33.93
69780;BME280;57052;55.602;38.096;2023-07-30T12:50:27;99360.22;;;29.66;33.90
69780;BME280;57052;55.602;38.096;2023-07-30T12:52:53;99362.56;;;29.38;34.29
69780;BME280;57052;55.602;38.096;2023-07-30T12:55:19;99349.34;;;29.08;34.12